Time;durP1;ratioP1;P1;durP2;ratioP2;P2;SDS_P1;SDS_P2;PMS_P1;PMS_P2;Temp;Humidity;BMP_temperature;BMP_pressure;BME280_temperature;BME280_humidity;BME280_pressure;Samples;Min_cycle;Max_cycle;Signal;HPM_P1;HPM_P2
2021/07/31 00:01:39;;;;;;;11.48;4.13;;;;;;;23.73;47.23;100764.69;5035284;28;20411;-83
2021/07/31 00:04:05;;;;;;;9.70;3.90;;;;;;;23.77;47.24;100768.25;5033624;28;20079;-83
2021/07/31 00:06:31;;;;;;;6.53;3.58;;;;;;;23.79;46.87;100773.44;5035004;28;20029;-84
2021/07/31 00:08:57;;;;;;;5.43;2.85;;;;;;;23.71;47.24;100766.28;5034758;28;20116;-82
2021/07/31 00:11:23;;;;;;;13.23;4.07;;;;;;;23.75;47.23;100776.25;5032997;28;20029;-83
2021/07/31 00:13:48;;;;;;;7.57;3.50;;;;;;;23.84;47.10;100769.44;5033700;28;20028;-83
2021/07/31 00:16:14;;;;;;;6.25;3.15;;;;;;;23.69;47.32;100774.25;5033754;28;20021;-83
2021/07/31 00:18:40;;;;;;;5.55;3.33;;;;;;;23.66;47.49;100775.88;5033459;28;20025;-87
2021/07/31 00:21:06;;;;;;;7.00;3.15;;;;;;;23.64;47.60;100771.88;5034568;28;20116;-84
2021/07/31 00:23:31;;;;;;;6.45;3.25;;;;;;;23.73;47.36;100775.84;5034840;28;20025;-83
2021/07/31 00:25:57;;;;;;;4.00;2.90;;;;;;;23.68;47.16;100773.47;5033418;28;20547;-83
2021/07/31 00:28:23;;;;;;;8.55;3.72;;;;;;;23.79;46.95;100773.44;5033495;28;20426;-83
2021/07/31 00:30:50;;;;;;;6.00;2.97;;;;;;;23.71;47.28;100769.06;5033023;28;20033;-84
2021/07/31 00:33:16;;;;;;;4.88;2.83;;;;;;;23.58;47.71;100774.25;5033124;28;20051;-82
2021/07/31 00:35:42;;;;;;;5.07;3.25;;;;;;;23.59;47.79;100775.06;5034645;28;20034;-84
2021/07/31 00:38:08;;;;;;;6.05;3.63;;;;;;;23.62;47.52;100780.63;5034395;28;20403;-83
2021/07/31 00:40:35;;;;;;;3.65;2.95;;;;;;;23.63;47.43;100781.44;5032925;28;20059;-84
2021/07/31 00:43:04;;;;;;;7.05;3.35;;;;;;;23.64;47.53;100774.66;5032977;28;20042;-84
2021/07/31 00:45:30;;;;;;;6.47;2.90;;;;;;;23.63;47.28;100771.06;5033220;28;20057;-85
2021/07/31 00:47:55;;;;;;;8.60;3.33;;;;;;;23.49;47.81;100776.63;5033979;28;20071;-83
2021/07/31 00:50:21;;;;;;;6.00;3.53;;;;;;;23.40;47.92;100774.25;5033138;28;20400;-84
2021/07/31 00:52:47;;;;;;;6.82;3.80;;;;;;;23.34;48.08;100764.69;5034174;28;20426;-83
2021/07/31 00:55:14;;;;;;;4.65;3.78;;;;;;;23.33;48.02;100779.03;5034142;28;20033;-85
2021/07/31 00:57:41;;;;;;;7.30;3.15;;;;;;;23.30;48.12;100777.06;5033125;28;20061;-87
2021/07/31 01:00:08;;;;;;;6.05;3.17;;;;;;;23.02;49.11;100778.63;5032928;28;20036;-84
2021/07/31 01:02:34;;;;;;;6.68;3.30;;;;;;;23.11;48.55;100778.25;5034060;28;20041;-84
2021/07/31 01:04:59;;;;;;;8.05;4.22;;;;;;;23.17;48.50;100777.44;5032503;28;20191;-83
2021/07/31 01:07:25;;;;;;;4.25;3.30;;;;;;;23.08;48.48;100781.84;5032687;28;20026;-82
2021/07/31 01:09:51;;;;;;;8.98;3.75;;;;;;;23.18;48.32;100778.25;5031930;28;20030;-83
2021/07/31 01:12:17;;;;;;;4.18;3.20;;;;;;;23.16;48.39;100783.44;5032635;28;20099;-84
2021/07/31 01:14:42;;;;;;;6.53;2.80;;;;;;;23.15;48.29;100774.28;5032663;28;20399;-87
2021/07/31 01:17:11;;;;;;;7.57;3.50;;;;;;;23.15;48.33;100788.22;5032745;28;20029;-87
2021/07/31 01:19:38;;;;;;;7.75;4.57;;;;;;;23.07;48.62;100786.63;5049446;28;20029;-84
2021/07/31 01:22:04;;;;;;;4.93;4.15;;;;;;;22.80;49.51;100783.34;5032634;28;20565;-83
2021/07/31 01:24:29;;;;;;;5.65;4.25;;;;;;;23.08;48.71;100784.63;5032093;28;20026;-87
2021/07/31 01:26:55;;;;;;;6.55;4.03;;;;;;;23.12;48.35;100786.19;5032268;28;20087;-83
2021/07/31 01:29:20;;;;;;;4.35;2.63;;;;;;;23.11;48.73;100773.47;5032094;28;20030;-85
2021/07/31 01:31:47;;;;;;;7.78;4.45;;;;;;;23.12;48.55;100775.06;5032406;28;20377;-84
2021/07/31 01:34:12;;;;;;;6.18;4.00;;;;;;;23.01;48.76;100779.84;5048887;28;20061;-84
2021/07/31 01:36:38;;;;;;;4.13;3.70;;;;;;;22.97;48.74;100781.81;5032163;28;20053;-84
2021/07/31 01:39:04;;;;;;;4.78;3.30;;;;;;;22.90;49.10;100779.03;5033432;28;20026;-83
2021/07/31 01:41:30;;;;;;;6.68;3.85;;;;;;;22.97;48.68;100777.06;5031989;28;20048;-85
2021/07/31 01:43:56;;;;;;;6.63;3.80;;;;;;;22.96;48.74;100774.66;5031840;28;20476;-85
2021/07/31 01:46:22;;;;;;;6.65;3.50;;;;;;;23.05;48.80;100775.06;5031860;28;20120;-83
2021/07/31 01:48:48;;;;;;;4.72;3.20;;;;;;;23.05;48.50;100775.06;5031976;28;20075;-86
2021/07/31 01:51:14;;;;;;;13.40;4.90;;;;;;;23.06;48.58;100773.88;5033342;28;20025;-83
2021/07/31 01:53:40;;;;;;;4.88;3.65;;;;;;;23.04;48.94;100775.44;5033082;28;20468;-84
2021/07/31 01:56:06;;;;;;;5.15;3.92;;;;;;;22.95;49.13;100770.28;5033351;28;20025;-83
2021/07/31 01:58:32;;;;;;;5.63;3.30;;;;;;;22.83;49.19;100771.44;5031763;28;20408;-82
2021/07/31 02:00:59;;;;;;;5.63;3.78;;;;;;;22.94;48.99;100771.47;5031922;28;20036;-83
2021/07/31 02:03:26;;;;;;;6.18;4.13;;;;;;;23.00;48.67;100778.25;5033063;28;20028;-83
2021/07/31 02:05:51;;;;;;;6.47;4.03;;;;;;;22.91;49.17;100764.72;5031894;28;20392;-84
2021/07/31 02:08:17;;;;;;;8.73;3.85;;;;;;;22.84;49.37;100770.25;5031696;28;20029;-84
2021/07/31 02:10:43;;;;;;;4.25;3.67;;;;;;;22.82;49.29;100766.25;5031815;28;20033;-82
2021/07/31 02:13:09;;;;;;;5.20;3.78;;;;;;;22.92;49.18;100771.88;5032831;28;20091;-87
2021/07/31 02:15:48;;;;;;;7.78;3.72;;;;;;;22.93;49.02;100767.88;5030892;28;20037;-83
2021/07/31 02:18:14;;;;;;;5.60;3.95;;;;;;;22.92;49.08;100777.44;5032097;28;20029;-83
2021/07/31 02:20:40;;;;;;;6.68;3.90;;;;;;;23.02;48.67;100770.28;5030968;28;20107;-83
2021/07/31 02:23:06;;;;;;;5.90;4.05;;;;;;;23.10;48.70;100773.88;5032944;28;20056;-83
2021/07/31 02:25:32;;;;;;;7.90;4.03;;;;;;;22.98;49.02;100775.06;5031548;28;20398;-82
2021/07/31 02:27:57;;;;;;;5.78;3.70;;;;;;;22.96;49.16;100767.09;5031581;28;20029;-83
2021/07/31 02:30:23;;;;;;;7.43;3.88;;;;;;;22.95;49.05;100775.84;5030480;28;20036;-82
2021/07/31 02:32:49;;;;;;;4.00;3.30;;;;;;;23.05;48.70;100772.28;5046967;28;20025;-84
2021/07/31 02:35:15;;;;;;;6.30;3.92;;;;;;;23.04;49.12;100779.03;5052576;28;20025;-83
2021/07/31 02:37:41;;;;;;;5.63;3.65;;;;;;;23.10;48.93;100780.22;5051236;28;20038;-83
2021/07/31 02:40:09;;;;;;;5.88;4.00;;;;;;;23.06;48.94;100776.66;5051223;28;20388;-83
2021/07/31 02:42:35;;;;;;;6.32;4.47;;;;;;;23.06;49.11;100782.25;5051856;28;20170;-85
2021/07/31 02:45:02;;;;;;;5.18;3.40;;;;;;;23.06;48.95;100775.88;5052361;28;20111;-83
2021/07/31 02:47:28;;;;;;;7.40;4.03;;;;;;;23.05;48.98;100772.28;5051056;28;20029;-83
2021/07/31 02:49:55;;;;;;;4.95;3.05;;;;;;;23.05;48.97;100765.88;5051120;28;20479;-83
2021/07/31 02:52:20;;;;;;;4.70;3.67;;;;;;;23.09;48.83;100772.28;5052631;28;20025;-82
2021/07/31 02:54:46;;;;;;;7.00;4.43;;;;;;;23.00;49.12;100767.09;5051018;28;20048;-84
2021/07/31 02:57:12;;;;;;;4.88;3.85;;;;;;;23.10;49.02;100769.09;5051145;28;20029;-84
2021/07/31 02:59:37;;;;;;;5.47;3.67;;;;;;;23.06;49.15;100765.53;5050980;28;20033;-83
2021/07/31 03:02:04;;;;;;;4.80;3.22;;;;;;;23.18;48.96;100772.66;5051069;28;20094;-83
2021/07/31 03:04:32;;;;;;;7.28;4.10;;;;;;;23.19;48.99;100768.69;5051047;28;20033;-83
2021/07/31 03:06:58;;;;;;;4.80;3.28;;;;;;;23.18;49.09;100761.53;5052152;28;20026;-83
2021/07/31 03:09:24;;;;;;;7.82;4.10;;;;;;;23.25;48.72;100762.31;5052187;28;20383;-84
2021/07/31 03:11:50;;;;;;;4.60;3.08;;;;;;;23.23;49.05;100763.91;5052274;28;20029;-83
2021/07/31 03:14:15;;;;;;;6.03;3.67;;;;;;;23.19;49.27;100763.91;5050911;28;20483;-84
2021/07/31 03:16:41;;;;;;;5.50;3.55;;;;;;;23.23;48.94;100761.94;5051078;28;20033;-83
2021/07/31 03:19:07;;;;;;;4.72;3.70;;;;;;;23.16;49.22;100764.72;5052363;28;20033;-84
2021/07/31 03:21:33;;;;;;;8.57;3.22;;;;;;;23.38;48.66;100756.34;5051057;28;20028;-86
2021/07/31 03:23:58;;;;;;;5.88;3.75;;;;;;;23.30;48.60;100769.50;5051947;28;20059;-82
2021/07/31 03:26:24;;;;;;;9.50;4.00;;;;;;;23.36;48.86;100755.97;5050776;28;20036;-84
2021/07/31 03:28:49;;;;;;;8.15;4.00;;;;;;;23.41;48.75;100752.75;5052043;28;20036;-82
2021/07/31 03:31:22;;;;;;;5.65;3.50;;;;;;;23.24;49.52;100763.50;5052284;28;20464;-84
2021/07/31 03:33:48;;;;;;;6.82;3.75;;;;;;;23.42;48.82;100754.34;5055644;28;20029;-86
2021/07/31 03:36:14;;;;;;;5.65;3.70;;;;;;;23.51;48.63;100749.16;5055563;28;20044;-82
2021/07/31 03:38:40;;;;;;;12.90;4.50;;;;;;;23.48;48.66;100742.38;5055853;28;20029;-86
2021/07/31 03:41:06;;;;;;;8.70;3.53;;;;;;;23.51;48.44;100747.16;5054565;28;20052;-83
2021/07/31 03:43:32;;;;;;;5.07;4.30;;;;;;;23.39;48.78;100749.56;5055841;28;20100;-82
2021/07/31 03:45:58;;;;;;;4.53;3.53;;;;;;;23.46;48.72;100746.78;5054086;28;20088;-82
2021/07/31 03:48:24;;;;;;;7.53;4.60;;;;;;;23.42;48.70;100743.19;5055616;28;20422;-83
2021/07/31 03:50:49;;;;;;;7.63;4.60;;;;;;;23.39;48.53;100744.00;5055579;28;20029;-83
2021/07/31 03:53:15;;;;;;;5.40;3.70;;;;;;;23.38;48.97;100746.00;5054238;28;20090;-82
2021/07/31 03:55:47;;;;;;;7.13;4.90;;;;;;;23.40;48.92;100740.00;5055245;28;20116;-84
2021/07/31 03:58:13;;;;;;;4.63;3.88;;;;;;;23.47;48.53;100740.78;5055574;28;20649;-84
2021/07/31 04:00:44;;;;;;;5.47;3.83;;;;;;;23.45;48.88;100737.63;5053655;28;20120;-83
2021/07/31 04:03:10;;;;;;;5.82;3.88;;;;;;;23.40;48.91;100740.81;5053874;28;20162;-85
2021/07/31 04:05:39;;;;;;;5.65;3.58;;;;;;;23.42;48.81;100743.97;5053859;28;20029;-84
2021/07/31 04:08:05;;;;;;;4.97;3.38;;;;;;;23.19;49.37;100738.81;5053948;28;20476;-82
2021/07/31 04:10:31;;;;;;;6.60;4.05;;;;;;;23.26;49.15;100740.81;5055323;28;20021;-83
2021/07/31 04:12:57;;;;;;;7.13;4.10;;;;;;;23.30;49.03;100746.41;5054994;28;20060;-84
2021/07/31 04:15:22;;;;;;;8.75;4.70;;;;;;;23.19;49.06;100735.25;5053788;28;20024;-85
2021/07/31 04:17:48;;;;;;;8.45;4.32;;;;;;;23.34;48.73;100739.59;5054883;28;20032;-84
2021/07/31 04:20:14;;;;;;;4.93;3.70;;;;;;;23.22;49.34;100754.75;5053871;28;20035;-84
2021/07/31 04:22:39;;;;;;;9.05;4.28;;;;;;;23.31;49.15;100748.78;5053632;28;20029;-84
2021/07/31 04:25:06;;;;;;;6.45;3.58;;;;;;;23.34;48.54;100749.97;5053399;28;20033;-87
2021/07/31 04:27:33;;;;;;;4.13;3.65;;;;;;;23.45;48.28;100740.41;5053717;28;20033;-84
2021/07/31 04:29:59;;;;;;;5.28;3.47;;;;;;;23.42;48.04;100741.19;5053392;28;20025;-83
2021/07/31 04:32:25;;;;;;;7.00;4.38;;;;;;;23.29;48.37;100744.81;5053368;28;20029;-84
2021/07/31 04:34:51;;;;;;;6.50;4.20;;;;;;;23.41;48.15;100742.38;5053227;28;20086;-84
2021/07/31 04:37:16;;;;;;;6.53;3.40;;;;;;;23.37;48.01;100740.81;5053385;28;20036;-84
2021/07/31 04:39:42;;;;;;;6.82;4.15;;;;;;;23.42;47.86;100741.19;5054455;28;20392;-86
2021/07/31 04:42:08;;;;;;;4.35;3.95;;;;;;;23.52;47.27;100740.41;5054283;28;20083;-84
2021/07/31 04:44:33;;;;;;;7.68;4.38;;;;;;;23.31;48.19;100742.41;5053304;28;20057;-84
2021/07/31 04:46:59;;;;;;;7.50;3.88;;;;;;;23.26;48.17;100738.81;5054321;28;20108;-83
2021/07/31 04:49:25;;;;;;;8.05;3.83;;;;;;;23.25;47.84;100751.16;5054263;28;20085;-83
2021/07/31 04:51:50;;;;;;;5.40;3.83;;;;;;;23.12;48.56;100747.19;5053093;28;20075;-83
2021/07/31 04:54:16;;;;;;;7.22;4.55;;;;;;;23.11;48.61;100753.16;5052787;28;20017;-85
2021/07/31 04:56:43;;;;;;;6.30;4.18;;;;;;;23.04;48.69;100751.16;5052832;28;20159;-84
2021/07/31 04:59:09;;;;;;;8.80;3.67;;;;;;;23.06;48.82;100745.22;5053001;28;20025;-87
2021/07/31 05:01:34;;;;;;;4.90;4.07;;;;;;;22.98;48.96;100742.44;5053983;28;20021;-83
2021/07/31 05:04:00;;;;;;;6.60;3.92;;;;;;;23.01;49.02;100740.81;5052828;28;20025;-86
2021/07/31 05:06:25;;;;;;;9.90;4.60;;;;;;;23.00;49.01;100749.59;5052840;28;20021;-82
2021/07/31 05:08:51;;;;;;;7.07;4.10;;;;;;;22.82;49.71;100747.56;5052631;28;20025;-84
2021/07/31 05:11:21;;;;;;;4.80;3.83;;;;;;;22.92;49.35;100746.78;5052799;28;20065;-85
2021/07/31 05:13:50;;;;;;;6.65;3.28;;;;;;;22.98;49.38;100748.00;5052633;28;20025;-84
2021/07/31 05:16:16;;;;;;;15.20;4.50;;;;;;;22.91;49.76;100741.63;5053841;28;20056;-84
2021/07/31 05:18:42;;;;;;;11.35;4.05;;;;;;;22.95;49.61;100748.78;5052684;28;20021;-87
2021/07/31 05:21:08;;;;;;;7.85;3.47;;;;;;;22.97;49.78;100746.41;5047247;28;20036;-87
2021/07/31 05:23:34;;;;;;;10.27;4.38;;;;;;;23.08;49.41;100748.41;5053424;28;20116;-86
2021/07/31 05:26:00;;;;;;;5.40;3.28;;;;;;;23.15;49.39;100751.19;5053460;28;20032;-83
2021/07/31 05:28:25;;;;;;;5.72;3.83;;;;;;;23.05;49.63;100751.97;5052239;28;20032;-86
2021/07/31 05:30:51;;;;;;;7.70;5.18;;;;;;;23.18;49.41;100753.16;5053363;28;20059;-83
2021/07/31 05:33:17;;;;;;;6.28;3.90;;;;;;;23.09;49.55;100752.78;5052083;28;20025;-86
2021/07/31 05:35:42;;;;;;;9.20;4.05;;;;;;;23.09;49.60;100749.97;5051998;28;20029;-83
2021/07/31 05:38:08;;;;;;;8.15;4.35;;;;;;;23.23;49.10;100758.34;5051926;28;20121;-82
2021/07/31 05:40:34;;;;;;;4.97;4.47;;;;;;;23.18;49.02;100751.16;5052144;28;20036;-82
2021/07/31 05:42:59;;;;;;;10.07;4.50;;;;;;;23.36;48.72;100750.38;5053117;28;20449;-81
2021/07/31 05:45:26;;;;;;;7.22;4.25;;;;;;;23.39;48.75;100747.56;5051799;28;20025;-87
2021/07/31 05:47:51;;;;;;;5.90;4.10;;;;;;;23.41;48.64;100747.16;5053354;28;20110;-85
2021/07/31 05:50:17;;;;;;;6.72;4.32;;;;;;;23.55;48.48;100741.56;5051876;28;20063;-83
2021/07/31 05:52:43;;;;;;;6.80;4.47;;;;;;;23.47;48.65;100745.56;5052236;28;20037;-85
2021/07/31 05:55:08;;;;;;;7.90;4.13;;;;;;;23.47;48.61;100745.56;5053135;28;20137;-83
2021/07/31 05:57:34;;;;;;;7.68;4.03;;;;;;;23.40;49.02;100740.81;5051941;28;20029;-85
2021/07/31 06:00:00;;;;;;;6.53;4.10;;;;;;;23.44;48.97;100746.38;5051638;28;20487;-83
2021/07/31 06:02:26;;;;;;;5.40;3.92;;;;;;;23.55;48.28;100747.16;5053612;28;20037;-84
2021/07/31 06:04:52;;;;;;;9.70;4.85;;;;;;;23.52;48.32;100747.97;5052372;28;20033;-87
2021/07/31 06:07:18;;;;;;;11.52;4.53;;;;;;;23.76;48.10;100741.56;5051944;28;20032;-83
2021/07/31 06:09:50;;;;;;;8.10;3.70;;;;;;;23.91;47.67;100753.47;5051975;28;20111;-83
2021/07/31 06:12:17;;;;;;;8.65;4.70;;;;;;;23.83;47.76;100751.13;5051961;28;20021;-80
2021/07/31 06:14:43;;;;;;;7.28;3.72;;;;;;;24.06;47.72;100751.44;5053074;28;20027;-86
2021/07/31 06:17:08;;;;;;;12.85;5.68;;;;;;;23.90;48.09;100754.69;5052940;28;20107;-85
2021/07/31 06:19:34;;;;;;;7.10;3.67;;;;;;;23.76;48.44;100755.50;5053292;28;20078;-85
2021/07/31 06:22:01;;;;;;;6.40;3.97;;;;;;;23.82;48.33;100760.69;5053130;28;20025;-84
2021/07/31 06:24:27;;;;;;;4.90;3.22;;;;;;;23.69;48.70;100757.53;5051605;28;20029;-85
2021/07/31 06:26:54;;;;;;;9.55;3.97;;;;;;;23.60;49.25;100759.91;5052867;28;20469;-86
2021/07/31 06:29:20;;;;;;;8.07;3.20;;;;;;;23.56;49.08;100759.09;5052941;28;20029;-87
2021/07/31 06:31:46;;;;;;;10.70;4.13;;;;;;;23.58;49.09;100763.09;5051527;28;20391;-83
2021/07/31 06:34:11;;;;;;;10.15;3.53;;;;;;;23.71;48.91;100766.28;5051427;28;20029;-87
2021/07/31 06:36:37;;;;;;;6.18;3.63;;;;;;;23.74;48.83;100768.28;5051894;28;20472;-85
2021/07/31 06:39:04;;;;;;;12.20;4.55;;;;;;;23.71;48.54;100772.66;5052768;28;20032;-87
2021/07/31 06:41:30;;;;;;;5.80;3.35;;;;;;;23.79;48.83;100776.22;5052579;28;20045;-87
2021/07/31 06:43:57;;;;;;;8.52;3.78;;;;;;;23.73;49.26;100772.28;5051550;28;20021;-85
2021/07/31 06:46:24;;;;;;;5.13;2.60;;;;;;;23.67;49.29;100771.06;5051624;28;20558;-87
2021/07/31 06:48:51;;;;;;;5.22;3.13;;;;;;;23.94;48.15;100768.59;5051589;28;20063;-84
2021/07/31 06:51:17;;;;;;;4.50;3.28;;;;;;;24.02;48.23;100782.13;5052785;28;20025;-77
2021/07/31 06:53:46;;;;;;;4.25;3.47;;;;;;;24.14;48.24;100778.09;5051604;28;20476;-84
2021/07/31 06:56:12;;;;;;;5.20;2.88;;;;;;;24.13;48.06;100784.91;5053227;28;20053;-87
2021/07/31 06:58:38;;;;;;;8.13;3.70;;;;;;;24.02;48.25;100781.34;5052577;28;20102;-87
2021/07/31 07:01:11;;;;;;;6.72;3.20;;;;;;;24.04;48.25;100784.53;5053042;28;20462;-87
2021/07/31 07:03:37;;;;;;;5.38;2.85;;;;;;;23.97;48.82;100784.56;5053737;28;20486;-91
2021/07/31 07:06:04;;;;;;;8.70;3.53;;;;;;;23.99;48.72;100788.53;5052995;28;20040;-87
2021/07/31 07:08:29;;;;;;;5.22;3.20;;;;;;;24.15;48.38;100790.88;5054746;28;20415;-86
2021/07/31 07:10:55;;;;;;;4.10;3.10;;;;;;;24.29;47.99;100790.81;5054921;28;20040;-85
2021/07/31 07:13:20;;;;;;;6.15;2.78;;;;;;;24.30;47.65;100797.97;5055032;28;20044;-86
2021/07/31 07:15:46;;;;;;;5.68;2.65;;;;;;;24.41;47.79;100789.59;5056570;28;20033;-87
2021/07/31 07:18:12;;;;;;;6.07;3.42;;;;;;;24.42;47.74;100799.56;5055238;28;20039;-83
2021/07/31 07:20:37;;;;;;;8.32;3.25;;;;;;;24.53;47.42;100802.28;5056183;28;20033;-83
2021/07/31 07:23:03;;;;;;;5.90;3.03;;;;;;;24.51;47.54;100796.31;5055755;28;20115;-82
2021/07/31 07:25:28;;;;;;;4.47;2.88;;;;;;;24.60;47.22;100793.88;5054312;28;20061;-86
2021/07/31 07:27:54;;;;;;;7.20;3.08;;;;;;;24.51;47.59;100787.94;5054668;28;20099;-86
2021/07/31 07:30:20;;;;;;;4.93;3.30;;;;;;;24.71;47.41;100791.00;5054635;28;20055;-86
2021/07/31 07:32:46;;;;;;;5.25;2.92;;;;;;;24.49;47.51;100790.38;5054448;28;20060;-84
2021/07/31 07:35:12;;;;;;;7.90;3.42;;;;;;;24.70;46.88;100798.59;5055963;28;20029;-84
2021/07/31 07:37:37;;;;;;;8.25;3.38;;;;;;;24.65;47.15;100795.47;5054752;28;20078;-84
2021/07/31 07:40:04;;;;;;;5.05;2.83;;;;;;;24.67;47.14;100801.44;5055502;28;20506;-85
2021/07/31 07:42:30;;;;;;;6.93;3.40;;;;;;;24.80;46.80;100803.34;5054298;28;20049;-82
2021/07/31 07:44:55;;;;;;;6.35;3.05;;;;;;;24.96;46.46;100807.63;5054696;28;20434;-84
2021/07/31 07:47:21;;;;;;;14.65;3.80;;;;;;;25.03;46.52;100804.81;5054722;28;20032;-87
2021/07/31 07:49:46;;;;;;;7.00;2.63;;;;;;;24.89;46.80;100812.06;5055871;28;20079;-85
2021/07/31 07:52:12;;;;;;;4.15;2.67;;;;;;;25.07;46.42;100802.78;5054665;28;20064;-87
2021/07/31 07:54:37;;;;;;;6.47;3.15;;;;;;;24.97;46.35;100806.44;5054701;28;20025;-86
2021/07/31 07:57:06;;;;;;;16.98;4.07;;;;;;;25.06;46.18;100804.00;5056336;28;20037;-86
2021/07/31 07:59:33;;;;;;;6.43;2.70;;;;;;;25.06;46.17;100810.38;5054457;28;20467;-86
2021/07/31 08:01:59;;;;;;;4.57;3.30;;;;;;;24.97;46.20;100809.22;5054904;28;20125;-87
2021/07/31 08:04:24;;;;;;;12.20;2.85;;;;;;;24.99;46.18;100809.59;5054323;28;20123;-85
2021/07/31 08:06:50;;;;;;;6.80;2.90;;;;;;;24.99;45.85;100807.59;5054205;28;20028;-88
2021/07/31 08:09:16;;;;;;;7.78;3.25;;;;;;;24.80;46.69;100802.56;5054489;28;20032;-85
2021/07/31 08:11:43;;;;;;;4.32;2.60;;;;;;;25.11;45.89;100806.38;5055641;28;20033;-88
2021/07/31 08:14:10;;;;;;;6.40;3.25;;;;;;;25.08;46.13;100796.00;5054422;28;20091;-84
2021/07/31 08:16:37;;;;;;;4.47;2.80;;;;;;;25.31;45.95;100795.41;5054171;28;20506;-84
2021/07/31 08:19:03;;;;;;;7.00;3.10;;;;;;;25.27;45.95;100791.84;5055023;28;20025;-86
2021/07/31 08:21:29;;;;;;;4.78;2.95;;;;;;;25.54;45.67;100800.41;5055246;28;20025;-88
2021/07/31 08:23:56;;;;;;;7.13;3.20;;;;;;;25.69;45.38;100802.66;5053313;28;20124;-87
2021/07/31 08:26:22;;;;;;;10.45;4.25;;;;;;;25.61;45.36;100800.31;5054685;28;20135;-86
2021/07/31 08:28:48;;;;;;;16.42;4.97;;;;;;;25.85;44.61;100804.94;5053651;28;20120;-83
2021/07/31 08:31:14;;;;;;;5.82;3.42;;;;;;;25.99;44.57;100801.94;5054570;28;20040;-85
2021/07/31 08:33:40;;;;;;;5.55;3.47;;;;;;;25.93;44.90;100806.44;5053559;28;20028;-86
2021/07/31 08:36:08;;;;;;;5.63;3.65;;;;;;;26.21;43.99;100810.09;5053174;28;20390;-86
2021/07/31 08:38:34;;;;;;;7.00;3.55;;;;;;;26.31;43.99;100809.22;5054904;28;20032;-84
2021/07/31 08:41:00;;;;;;;3.78;2.42;;;;;;;26.32;44.20;100802.38;5053319;28;20408;-84
2021/07/31 08:43:28;;;;;;;18.85;5.13;;;;;;;26.43;43.76;100805.06;5053344;28;20021;-86
2021/07/31 08:45:54;;;;;;;4.57;2.88;;;;;;;26.77;42.85;100802.22;5053475;28;20029;-86
2021/07/31 08:48:27;;;;;;;4.82;2.42;;;;;;;26.94;42.34;100803.94;5053779;28;20507;-87
2021/07/31 08:50:56;;;;;;;4.18;2.40;;;;;;;27.01;42.85;100811.47;5055126;28;20066;-86
2021/07/31 08:53:25;;;;;;;5.68;3.10;;;;;;;27.09;42.30;100812.97;5053936;28;20096;-87
2021/07/31 08:55:51;;;;;;;6.93;2.60;;;;;;;27.22;41.93;100813.97;5053695;28;20082;-88
2021/07/31 08:58:16;;;;;;;4.10;2.45;;;;;;;27.21;41.96;100808.78;5053579;28;20383;-87
2021/07/31 09:00:42;;;;;;;6.53;3.53;;;;;;;27.07;42.37;100807.78;5053674;28;20025;-86
2021/07/31 09:03:07;;;;;;;5.55;3.53;;;;;;;26.97;42.58;100816.31;5054643;28;20025;-89
2021/07/31 09:05:35;;;;;;;6.68;3.17;;;;;;;27.10;41.80;100800.53;5054670;28;20387;-87
2021/07/31 09:08:06;;;;;;;7.43;3.63;;;;;;;27.04;41.34;100811.44;5054814;28;20479;-88
2021/07/31 09:10:38;;;;;;;5.25;3.15;;;;;;;27.06;41.49;100814.63;5053424;28;20028;-87
2021/07/31 09:13:07;;;;;;;7.63;4.72;;;;;;;27.35;41.07;100814.13;5053675;28;20033;-87
2021/07/31 09:15:47;;;;;;;13.30;3.87;;;;;;;27.10;40.99;100814.56;5053204;28;20079;-86
2021/07/31 09:18:34;;;;;;;12.90;6.13;;;;;;;26.92;41.71;100809.19;5053442;28;20033;-87
2021/07/31 09:21:05;;;;;;;11.38;4.20;;;;;;;27.27;41.08;100815.47;5053476;28;20033;-88
2021/07/31 09:23:52;;;;;;;7.43;3.35;;;;;;;27.25;40.51;100815.91;5052905;28;20055;-86
2021/07/31 09:26:23;;;;;;;7.05;4.00;;;;;;;27.30;40.52;100818.25;5053388;28;20033;-85
2021/07/31 09:29:05;;;;;;;12.55;4.28;;;;;;;27.18;40.72;100816.03;5054007;28;20032;-85
2021/07/31 09:31:32;;;;;;;9.43;2.70;;;;;;;27.67;39.93;100815.63;5053462;28;20024;-85
2021/07/31 09:34:00;;;;;;;4.10;3.10;;;;;;;27.58;39.74;100818.97;5052519;28;20017;-86
2021/07/31 09:37:05;;;;;;;4.20;2.80;;;;;;;26.81;40.63;100814.94;5053091;28;20017;-84
2021/07/31 09:39:52;;;;;;;5.80;2.95;;;;;;;27.04;40.91;100825.44;5046818;28;20514;-83
2021/07/31 09:42:33;;;;;;;5.18;2.78;;;;;;;27.19;41.33;100822.44;5053615;28;20102;-85
2021/07/31 09:45:04;;;;;;;3.13;2.20;;;;;;;27.30;41.15;100829.47;5052492;28;20063;-84
2021/07/31 09:47:35;;;;;;;4.57;2.40;;;;;;;27.30;41.46;100811.84;5053517;28;20032;-83
2021/07/31 09:50:01;;;;;;;4.93;2.15;;;;;;;27.33;41.25;100820.19;5053675;28;20036;-86
2021/07/31 09:52:28;;;;;;;5.80;2.55;;;;;;;27.14;41.54;100822.94;5052375;28;20040;-85
2021/07/31 09:54:57;;;;;;;8.30;3.35;;;;;;;27.46;41.09;100820.38;5052260;28;20064;-86
2021/07/31 09:57:28;;;;;;;7.10;2.65;;;;;;;27.41;41.14;100828.47;5053561;28;20028;-85
2021/07/31 10:00:04;;;;;;;4.10;2.45;;;;;;;27.00;41.87;100824.69;5052537;28;20028;-87
2021/07/31 10:02:30;;;;;;;5.53;2.30;;;;;;;27.12;41.64;100825.34;5053974;28;20035;-88
2021/07/31 10:04:56;;;;;;;4.13;2.17;;;;;;;27.06;41.62;100823.03;5052329;28;20368;-84
2021/07/31 10:07:22;;;;;;;7.10;2.40;;;;;;;27.22;41.04;100827.19;5052454;28;20083;-86
2021/07/31 10:09:53;;;;;;;3.90;2.53;;;;;;;27.24;41.26;100830.38;5052264;28;20016;-84
2021/07/31 10:12:27;;;;;;;12.93;4.20;;;;;;;27.31;41.33;100830.25;5052142;28;20033;-87
2021/07/31 10:14:53;;;;;;;6.55;3.42;;;;;;;27.31;41.27;100828.25;5053746;28;20025;-86
2021/07/31 10:17:30;;;;;;;8.02;3.70;;;;;;;27.31;40.98;100835.88;5052345;28;20024;-85
2021/07/31 10:19:57;;;;;;;9.20;3.10;;;;;;;27.36;41.08;100838.19;5053404;28;20036;-84
2021/07/31 10:22:44;;;;;;;6.53;3.05;;;;;;;27.19;40.48;100828.81;5052065;28;20414;-86
2021/07/31 10:25:14;;;;;;;6.70;3.20;;;;;;;27.39;40.99;100831.72;5053090;28;20029;-85
2021/07/31 10:27:40;;;;;;;7.72;3.30;;;;;;;27.68;40.81;100820.84;5051859;28;20454;-85
2021/07/31 10:30:27;;;;;;;12.27;3.08;;;;;;;27.65;41.23;100830.06;5051370;28;20029;-83
2021/07/31 10:32:54;;;;;;;10.48;2.63;;;;;;;27.83;40.71;100832.59;5053134;28;20399;-83
2021/07/31 10:35:37;;;;;;;6.75;1.95;;;;;;;27.83;41.22;100827.78;5051544;28;20395;-84
2021/07/31 10:38:12;;;;;;;8.40;4.22;;;;;;;27.81;40.86;100829.41;5052781;28;20086;-84
2021/07/31 10:40:40;;;;;;;4.32;2.80;;;;;;;27.91;40.48;100828.44;5051760;28;20555;-83
2021/07/31 10:43:13;;;;;;;7.43;3.60;;;;;;;27.83;40.18;100821.38;5054048;28;20399;-84
2021/07/31 10:45:39;;;;;;;4.13;2.92;;;;;;;27.96;40.12;100819.50;5055819;28;20040;-84
2021/07/31 10:48:22;;;;;;;5.25;3.42;;;;;;;27.90;40.29;100829.66;5056723;28;20033;-83
2021/07/31 10:50:48;;;;;;;3.08;2.20;;;;;;;27.85;40.36;100819.69;5056088;28;20108;-86
2021/07/31 10:53:14;;;;;;;2.85;2.00;;;;;;;27.79;39.65;100821.41;5055927;28;20128;-85
2021/07/31 10:55:42;;;;;;;4.65;3.03;;;;;;;27.91;39.49;100820.00;5055538;28;20072;-87
2021/07/31 10:58:19;;;;;;;4.82;2.38;;;;;;;28.07;39.58;100820.09;5057009;28;20426;-86
2021/07/31 11:00:45;;;;;;;3.63;1.80;;;;;;;28.23;38.80;100822.19;5055435;28;20029;-85
2021/07/31 11:03:31;;;;;;;3.05;1.55;;;;;;;28.26;38.31;100815.69;5055722;28;20025;-85
2021/07/31 11:06:06;;;;;;;7.03;2.50;;;;;;;28.38;38.14;100817.88;5055394;28;20110;-85
2021/07/31 11:08:34;;;;;;;4.50;1.85;;;;;;;28.62;37.60;100824.19;5056603;28;20040;-86
2021/07/31 11:11:15;;;;;;;8.15;2.55;;;;;;;28.75;37.60;100818.69;5055317;28;20025;-85
2021/07/31 11:13:41;;;;;;;3.17;1.27;;;;;;;28.85;37.15;100816.84;5055178;28;20025;-87
2021/07/31 11:16:17;;;;;;;2.22;1.30;;;;;;;28.96;36.75;100806.19;5056735;28;20430;-84
2021/07/31 11:18:52;;;;;;;4.00;1.52;;;;;;;28.90;36.80;100819.16;5055522;28;20063;-86
2021/07/31 11:21:26;;;;;;;17.88;6.90;;;;;;;28.85;36.67;100825.28;5056184;28;20100;-83
2021/07/31 11:24:06;;;;;;;4.05;1.80;;;;;;;28.57;37.92;100829.56;5056115;28;20055;-82
2021/07/31 11:26:51;;;;;;;9.45;2.58;;;;;;;28.58;38.04;100831.13;5054489;28;20033;-82